createdAt,value
2022-09-04T00:04:43.464Z,16.50
2022-09-04T00:10:09.671Z,16.40
2022-09-04T00:15:23.045Z,16.30
2022-09-04T00:20:58.291Z,16.30
2022-09-04T00:26:39.360Z,16.20
2022-09-04T00:31:52.079Z,16.20
2022-09-04T00:36:58.419Z,16.10
2022-09-04T00:42:18.920Z,16.00
2022-09-04T00:47:48.729Z,16.00
2022-09-04T00:53:15.101Z,16.00
2022-09-04T00:58:24.546Z,15.90
2022-09-04T01:03:41.498Z,15.80
2022-09-04T01:09:17.012Z,15.70
2022-09-04T01:15:13.338Z,15.50
2022-09-04T01:20:54.857Z,15.40
2022-09-04T01:26:49.229Z,15.50
2022-09-04T01:31:54.829Z,15.50
2022-09-04T01:54:52.934Z,15.60
2022-09-04T02:00:17.669Z,15.60
2022-09-04T02:05:31.607Z,15.70
2022-09-04T02:11:15.772Z,15.70
2022-09-04T02:16:59.535Z,15.80
2022-09-04T02:22:15.010Z,15.80
2022-09-04T02:27:24.181Z,15.90
2022-09-04T02:32:38.722Z,15.90
2022-09-04T02:37:58.164Z,16.00
2022-09-04T02:43:24.818Z,16.00
2022-09-04T02:48:48.377Z,16.00
2022-09-04T02:54:16.605Z,16.10
2022-09-04T02:59:53.571Z,16.20
2022-09-04T03:05:22.706Z,16.20
2022-09-04T03:10:34.184Z,16.40
2022-09-04T03:15:50.083Z,16.30
2022-09-04T03:20:55.218Z,16.50
2022-09-04T03:26:15.656Z,16.40
2022-09-04T03:31:48.890Z,16.50
2022-09-04T03:36:54.052Z,16.60
2022-09-04T03:42:26.553Z,16.70
2022-09-04T03:48:04.289Z,16.80
2022-09-04T03:53:37.722Z,16.80
2022-09-04T03:58:54.442Z,16.90
2022-09-04T04:04:21.690Z,16.90
2022-09-04T04:09:48.216Z,17.00
2022-09-04T04:15:44.611Z,17.10
2022-09-04T04:21:36.779Z,17.10
2022-09-04T04:26:41.340Z,17.10
2022-09-04T04:32:31.149Z,17.20
2022-09-04T04:37:43.611Z,17.10
2022-09-04T04:42:54.696Z,17.10
2022-09-04T04:48:24.214Z,17.10
2022-09-04T04:53:49.138Z,17.20
2022-09-04T04:59:27.195Z,17.20
2022-09-04T05:05:04.534Z,17.20
2022-09-04T05:10:36.550Z,17.30
2022-09-04T05:16:08.449Z,17.30
2022-09-04T05:21:23.499Z,17.40
2022-09-04T05:26:39.998Z,17.40
2022-09-04T05:31:53.694Z,17.30
2022-09-04T05:37:17.232Z,17.30
2022-09-04T05:42:57.637Z,17.40
2022-09-04T05:48:26.291Z,17.50
2022-09-04T05:53:51.651Z,17.50
2022-09-04T05:59:16.972Z,17.50
2022-09-04T06:04:19.051Z,17.60
2022-09-04T06:09:53.801Z,17.70
2022-09-04T06:15:11.230Z,17.60
2022-09-04T06:20:22.448Z,17.70
2022-09-04T06:25:41.091Z,17.70
2022-09-04T06:31:06.226Z,17.60
2022-09-04T06:36:47.774Z,17.60
2022-09-04T06:42:20.226Z,17.80
2022-09-04T06:48:11.999Z,17.80
2022-09-04T07:19:40.542Z,18.80
2022-09-04T07:25:30.824Z,18.90
2022-09-04T07:37:02.122Z,19.20
2022-09-04T08:01:53.786Z,19.40
2022-09-04T08:07:40.447Z,19.60
2022-09-04T08:13:27.625Z,19.50
2022-09-04T08:19:11.630Z,19.50
2022-09-04T08:25:03.911Z,19.60
2022-09-04T08:30:18.890Z,19.60
2022-09-04T08:42:08.390Z,19.50
2022-09-04T08:47:17.777Z,19.50
2022-09-04T08:52:37.592Z,19.40
2022-09-04T08:58:01.153Z,19.90
2022-09-04T09:03:25.128Z,20.10
2022-09-04T09:08:58.790Z,20.30
2022-09-04T09:14:41.859Z,20.40
2022-09-04T09:19:46.464Z,20.10
2022-09-04T09:30:54.444Z,20.10
2022-09-04T09:43:09.070Z,20.60
2022-09-04T10:13:59.569Z,21.60
2022-09-04T10:19:29.239Z,21.80
2022-09-04T10:25:07.696Z,22.00
2022-09-04T10:30:29.774Z,21.90
2022-09-04T10:35:34.724Z,22.20
2022-09-04T10:41:19.179Z,22.40
2022-09-04T10:46:43.015Z,22.50
2022-09-04T10:52:17.254Z,22.90
2022-09-04T10:57:44.122Z,23.20
2022-09-04T11:03:22.823Z,23.20
2022-09-04T11:08:43.715Z,23.30
2022-09-04T11:14:28.947Z,23.60
2022-09-04T11:20:18.420Z,23.60
2022-09-04T11:25:44.813Z,23.70
2022-09-04T11:30:56.299Z,23.80
2022-09-04T11:36:30.680Z,24.00
2022-09-04T11:42:19.978Z,24.00
2022-09-04T11:47:49.461Z,24.00
2022-09-04T11:53:11.297Z,24.50
2022-09-04T11:58:36.515Z,24.70
2022-09-04T12:04:03.225Z,24.70
2022-09-04T12:09:38.726Z,24.70
2022-09-04T12:14:46.866Z,24.70
2022-09-04T12:20:23.964Z,25.10
2022-09-04T12:25:50.159Z,25.20
2022-09-04T12:31:15.998Z,25.50
2022-09-04T12:36:27.180Z,25.50
2022-09-04T12:41:37.844Z,26.00
2022-09-04T12:47:28.428Z,26.30
2022-09-04T12:52:51.894Z,26.30
2022-09-04T12:58:03.833Z,26.30
2022-09-04T13:03:29.465Z,26.50
2022-09-04T13:08:55.289Z,27.00
2022-09-04T13:14:00.054Z,27.40
2022-09-04T13:19:36.115Z,27.00
2022-09-04T13:25:14.572Z,27.90
2022-09-04T13:30:25.451Z,28.40
2022-09-04T13:35:42.545Z,28.40
2022-09-04T13:41:02.367Z,28.50
2022-09-04T13:46:11.425Z,28.70
2022-09-04T13:51:24.145Z,28.40
2022-09-04T13:56:42.030Z,28.20
2022-09-04T14:01:49.276Z,28.60
2022-09-04T14:06:51.184Z,28.70
2022-09-04T14:12:13.586Z,28.90
2022-09-04T14:17:27.049Z,28.70
2022-09-04T14:23:04.583Z,28.70
2022-09-04T14:28:32.008Z,28.00
2022-09-04T14:33:41.775Z,28.30
2022-09-04T14:38:49.747Z,28.90
2022-09-04T14:44:25.505Z,29.30
2022-09-04T14:49:31.764Z,29.30
2022-09-04T14:54:40.117Z,29.40
2022-09-04T14:59:49.457Z,29.60
2022-09-04T15:05:16.743Z,29.30
2022-09-04T15:10:24.449Z,28.90
2022-09-04T15:15:39.127Z,29.20
2022-09-04T15:20:56.160Z,29.20
2022-09-04T15:26:07.254Z,28.60
2022-09-04T15:31:16.597Z,27.90
2022-09-04T15:36:23.892Z,28.10
2022-09-04T15:41:45.655Z,27.90
2022-09-04T15:46:56.561Z,28.10
2022-09-04T15:52:09.445Z,27.90
2022-09-04T15:57:39.339Z,27.90
2022-09-04T16:02:54.690Z,27.80
2022-09-04T16:08:10.206Z,27.90
2022-09-04T16:13:35.507Z,27.70
2022-09-04T16:18:46.709Z,27.70
2022-09-04T16:23:49.824Z,27.70
2022-09-04T16:28:58.599Z,27.40
2022-09-04T16:34:26.700Z,27.40
2022-09-04T16:39:32.802Z,27.40
2022-09-04T16:44:47.702Z,27.30
2022-09-04T16:50:17.983Z,27.50
2022-09-04T16:55:34.440Z,27.50
2022-09-04T17:00:59.951Z,27.30
2022-09-04T17:06:30.424Z,27.30
2022-09-04T17:17:30.550Z,27.00
2022-09-04T17:29:01.037Z,26.80
2022-09-04T17:29:17.147Z,26.70
2022-09-04T17:40:38.373Z,26.50
2022-09-04T17:40:56.304Z,26.40
2022-09-04T17:45:39.035Z,26.20
2022-09-04T17:50:53.261Z,26.00
2022-09-04T17:56:13.969Z,25.80
2022-09-04T18:01:35.518Z,25.60
2022-09-04T18:06:43.110Z,25.40
2022-09-04T18:12:00.914Z,25.20
2022-09-04T18:17:45.455Z,24.90
2022-09-04T18:23:14.129Z,24.70
2022-09-04T18:28:25.597Z,24.50
2022-09-04T18:37:22.868Z,24.20
2022-09-04T18:39:12.690Z,24.00
2022-09-04T18:50:22.177Z,23.80
2022-09-04T18:50:52.395Z,23.60
2022-09-04T18:55:23.556Z,23.50
2022-09-04T19:00:30.643Z,23.20
2022-09-04T19:05:44.943Z,23.00
2022-09-04T19:10:51.638Z,22.80
2022-09-04T19:16:07.580Z,22.60
2022-09-04T19:21:14.486Z,22.40
2022-09-04T19:26:43.165Z,22.30
2022-09-04T19:32:08.345Z,22.10
2022-09-04T19:39:13.277Z,21.80
2022-09-04T19:46:15.051Z,21.60
2022-09-04T19:48:37.561Z,21.50
2022-09-04T19:54:12.286Z,21.30
2022-09-04T19:59:39.258Z,21.10
2022-09-04T20:04:48.475Z,21.00
2022-09-04T20:09:54.877Z,20.90
2022-09-04T20:14:59.561Z,20.80
2022-09-04T20:20:06.019Z,20.70
2022-09-04T20:25:07.728Z,20.60
2022-09-04T20:30:24.556Z,20.50
2022-09-04T20:35:33.325Z,20.40
2022-09-04T20:40:42.281Z,20.30
2022-09-04T20:48:09.027Z,20.20
2022-09-04T20:52:58.420Z,20.00
2022-09-04T21:03:05.134Z,20.00
2022-09-04T21:03:17.246Z,19.90
2022-09-04T21:08:24.403Z,19.80
2022-09-04T21:13:38.229Z,19.80
2022-09-04T21:19:27.334Z,19.70
2022-09-04T21:24:30.562Z,19.60
2022-09-04T21:30:02.721Z,19.40
2022-09-04T21:35:34.998Z,19.30
2022-09-04T21:40:51.536Z,19.20
2022-09-04T21:46:19.537Z,19.10
2022-09-04T21:51:53.703Z,19.00
2022-09-04T22:02:24.959Z,18.90
2022-09-04T22:03:39.925Z,18.80
2022-09-04T22:13:26.814Z,18.60
2022-09-04T22:14:37.231Z,18.50
2022-09-04T22:20:06.055Z,18.50
2022-09-04T22:25:31.807Z,18.40
2022-09-04T22:30:59.108Z,18.30
2022-09-04T22:36:15.815Z,18.20
2022-09-04T22:41:36.731Z,18.20
2022-09-04T22:46:58.788Z,18.20
2022-09-04T22:52:10.239Z,18.10
2022-09-04T22:57:46.532Z,18.00
2022-09-04T23:03:08.342Z,18.00
2022-09-04T23:14:00.696Z,18.00
2022-09-04T23:14:08.772Z,17.80
2022-09-04T23:23:18.724Z,17.80
2022-09-04T23:26:48.653Z,17.70
2022-09-04T23:31:07.250Z,17.70
2022-09-04T23:36:33.992Z,17.60
2022-09-04T23:41:53.287Z,17.60
2022-09-04T23:47:22.434Z,17.50
2022-09-04T23:53:02.360Z,17.40
2022-09-04T23:58:47.226Z,17.40
